Time;durP1;ratioP1;P1;durP2;ratioP2;P2;SDS_P1;SDS_P2;PMS_P1;PMS_P2;Temp;Humidity;BMP_temperature;BMP_pressure;BME280_temperature;BME280_humidity;BME280_pressure;Samples;Min_cycle;Max_cycle;Signal;HPM_P1;HPM_P2
2022/05/18 00:00:31;;;;;;;6.00;2.40;;;;;;;;;;5085046;28;20016;-67
2022/05/18 00:02:58;;;;;;;3.60;2.03;;;;;;;;;;5100120;28;20461;-66
2022/05/18 00:05:24;;;;;;;5.07;2.00;;;;;;;;;;5087961;28;20028;-67
2022/05/18 00:07:50;;;;;;;4.30;2.20;;;;;;;;;;5099388;28;20050;-68
2022/05/18 00:10:16;;;;;;;4.07;2.30;;;;;;;;;;5089881;28;20447;-65
2022/05/18 00:12:43;;;;;;;6.05;2.03;;;;;;;;;;5101442;28;20039;-65
2022/05/18 00:15:09;;;;;;;4.63;2.22;;;;;;;;;;5094361;28;20056;-67
2022/05/18 00:17:35;;;;;;;3.83;2.30;;;;;;;;;;5105923;28;20491;-67
2022/05/18 00:20:02;;;;;;;5.05;2.17;;;;;;;;;;5095361;28;20511;-65
2022/05/18 00:22:27;;;;;;;5.45;2.00;;;;;;;;;;5098364;28;20479;-66
2022/05/18 00:24:53;;;;;;;4.00;2.42;;;;;;;;;;5096023;28;20017;-67
2022/05/18 00:27:19;;;;;;;6.13;2.00;;;;;;;;;;5084213;28;20116;-66
2022/05/18 00:29:45;;;;;;;4.85;2.10;;;;;;;;;;5094089;28;20114;-67
2022/05/18 00:32:11;;;;;;;4.70;2.00;;;;;;;;;;5089649;28;20019;-68
2022/05/18 00:34:38;;;;;;;4.57;2.10;;;;;;;;;;5098365;28;20023;-68
2022/05/18 00:37:05;;;;;;;3.97;2.20;;;;;;;;;;5096381;28;20111;-65
2022/05/18 00:39:30;;;;;;;5.78;2.22;;;;;;;;;;5097083;28;20491;-65
2022/05/18 00:41:56;;;;;;;9.13;2.40;;;;;;;;;;5085371;28;20106;-67
2022/05/18 00:44:22;;;;;;;4.25;2.15;;;;;;;;;;5096110;28;20020;-67
2022/05/18 00:46:48;;;;;;;5.00;2.45;;;;;;;;;;5092650;28;20065;-66
2022/05/18 00:49:14;;;;;;;5.07;2.42;;;;;;;;;;5082923;28;20032;-67
2022/05/18 00:51:46;;;;;;;6.93;2.53;;;;;;;;;;5097254;28;20062;-67
2022/05/18 00:54:15;;;;;;;4.38;2.30;;;;;;;;;;5096908;28;20032;-66
2022/05/18 00:56:53;;;;;;;5.75;2.60;;;;;;;;;;5085352;28;20475;-66
2022/05/18 00:59:21;;;;;;;5.05;2.40;;;;;;;;;;5086144;28;20365;-67
2022/05/18 01:01:49;;;;;;;6.00;2.35;;;;;;;;;;5088330;28;20861;-65
2022/05/18 01:04:16;;;;;;;4.78;2.60;;;;;;;;;;5092514;28;20093;-66
2022/05/18 01:06:51;;;;;;;5.97;2.50;;;;;;;;;;5086139;28;20059;-67
2022/05/18 01:09:37;;;;;;;5.30;2.85;;;;;;;;;;5089212;28;20019;-66
2022/05/18 01:12:07;;;;;;;4.55;2.60;;;;;;;;;;5088882;28;20072;-67
2022/05/18 01:14:35;;;;;;;4.85;2.65;;;;;;;;;;5094070;28;20044;-67
2022/05/18 01:17:01;;;;;;;4.13;2.38;;;;;;;;;;5101221;28;20026;-66
2022/05/18 01:19:35;;;;;;;5.55;2.17;;;;;;;;;;5091985;28;20012;-67
2022/05/18 01:22:11;;;;;;;4.28;2.38;;;;;;;;;;5094185;28;20059;-66
2022/05/18 01:24:56;;;;;;;4.80;2.40;;;;;;;;;;5092567;28;20474;-66
2022/05/18 01:27:22;;;;;;;5.25;2.90;;;;;;;;;;5085212;28;20098;-67
2022/05/18 01:29:48;;;;;;;8.27;2.58;;;;;;;;;;5099564;28;20028;-66
2022/05/18 01:32:15;;;;;;;6.25;2.72;;;;;;;;;;5085793;28;20058;-66
2022/05/18 01:34:42;;;;;;;5.88;2.78;;;;;;;;;;5103225;28;20371;-66
2022/05/18 01:37:09;;;;;;;4.80;2.70;;;;;;;;;;5099744;28;20348;-66
2022/05/18 01:39:56;;;;;;;6.25;2.75;;;;;;;;;;5101333;28;20023;-67
2022/05/18 01:42:31;;;;;;;7.55;2.97;;;;;;;;;;5084502;28;20052;-66
2022/05/18 01:44:57;;;;;;;7.03;2.80;;;;;;;;;;5092955;28;20058;-67
2022/05/18 01:47:23;;;;;;;5.15;2.40;;;;;;;;;;5088451;28;20059;-67
2022/05/18 01:49:51;;;;;;;7.30;2.60;;;;;;;;;;5090354;28;20025;-65
2022/05/18 01:52:17;;;;;;;5.18;2.72;;;;;;;;;;5084165;28;20032;-67
2022/05/18 01:54:44;;;;;;;5.63;2.70;;;;;;;;;;5088760;28;20043;-67
2022/05/18 01:57:11;;;;;;;4.50;2.53;;;;;;;;;;5087086;28;20012;-66
2022/05/18 01:59:37;;;;;;;4.53;2.80;;;;;;;;;;5088972;28;20089;-66
2022/05/18 02:02:04;;;;;;;5.75;3.20;;;;;;;;;;5083875;28;20113;-66
2022/05/18 02:04:33;;;;;;;6.40;2.80;;;;;;;;;;5091123;28;20588;-66
2022/05/18 02:07:00;;;;;;;4.47;2.75;;;;;;;;;;5100413;28;20027;-66
2022/05/18 02:09:26;;;;;;;8.00;2.88;;;;;;;;;;5090586;28;20478;-67
2022/05/18 02:11:52;;;;;;;5.25;2.75;;;;;;;;;;5096145;28;20027;-65
2022/05/18 02:14:18;;;;;;;5.25;2.90;;;;;;;;;;5083309;28;20057;-67
2022/05/18 02:16:44;;;;;;;5.78;3.28;;;;;;;;;;5092878;28;20459;-67
2022/05/18 02:19:10;;;;;;;3.80;2.70;;;;;;;;;;5091485;28;20024;-66
2022/05/18 02:21:36;;;;;;;5.75;2.92;;;;;;;;;;5098420;28;20020;-67
2022/05/18 02:24:02;;;;;;;8.18;3.47;;;;;;;;;;5082609;28;20429;-66
2022/05/18 02:26:28;;;;;;;4.53;2.95;;;;;;;;;;5086696;28;20031;-67
2022/05/18 02:28:54;;;;;;;4.85;2.90;;;;;;;;;;5090333;28;20085;-67
2022/05/18 02:31:20;;;;;;;4.82;2.97;;;;;;;;;;5093940;28;20032;-66
2022/05/18 02:33:46;;;;;;;6.95;3.03;;;;;;;;;;5091701;28;20347;-66
2022/05/18 02:36:12;;;;;;;6.13;3.40;;;;;;;;;;5097220;28;20511;-67
2022/05/18 02:38:39;;;;;;;4.50;2.88;;;;;;;;;;5094504;28;20089;-66
2022/05/18 02:41:05;;;;;;;5.05;3.05;;;;;;;;;;5087895;28;20023;-66
2022/05/18 02:43:31;;;;;;;5.30;3.28;;;;;;;;;;5092500;28;20379;-66
2022/05/18 02:46:01;;;;;;;6.05;3.05;;;;;;;;;;5097115;28;20453;-67
2022/05/18 02:48:27;;;;;;;6.90;3.13;;;;;;;;;;5089663;28;20023;-66
2022/05/18 02:50:53;;;;;;;4.90;3.00;;;;;;;;;;5089752;28;20030;-67
2022/05/18 02:53:19;;;;;;;5.35;3.35;;;;;;;;;;5079240;28;20475;-65
2022/05/18 02:58:30;;;;;;;7.20;3.65;;;;;;;;;;5092535;28;20075;-67
2022/05/18 03:00:56;;;;;;;5.60;3.55;;;;;;;;;;5090629;28;20088;-67
2022/05/18 03:03:22;;;;;;;5.93;3.30;;;;;;;;;;5099973;28;20024;-66
2022/05/18 03:05:48;;;;;;;9.60;3.70;;;;;;;;;;5089576;28;20455;-66
2022/05/18 03:08:14;;;;;;;6.80;3.67;;;;;;;;;;5095761;28;20031;-66
2022/05/18 03:10:41;;;;;;;7.75;3.15;;;;;;;;;;5088555;28;20039;-65
2022/05/18 03:13:07;;;;;;;7.88;3.40;;;;;;;;;;5090509;28;20117;-66
2022/05/18 03:15:33;;;;;;;5.25;3.10;;;;;;;;;;5089260;28;20036;-67
2022/05/18 03:17:59;;;;;;;8.27;3.58;;;;;;;;;;5103600;28;20055;-67
2022/05/18 03:25:55;;;;;;;7.70;3.60;;;;;;;;;;5088994;28;20541;-66
2022/05/18 03:28:21;;;;;;;6.15;3.42;;;;;;;;;;5095499;28;20020;-65
2022/05/18 03:30:47;;;;;;;6.68;3.75;;;;;;;;;;5098651;28;20024;-65
2022/05/18 03:33:13;;;;;;;4.38;3.20;;;;;;;;;;5090428;28;20028;-65
2022/05/18 03:35:39;;;;;;;5.38;3.15;;;;;;;;;;5098887;28;20040;-67
2022/05/18 03:38:05;;;;;;;8.18;3.67;;;;;;;;;;5089869;28;20106;-67
2022/05/18 03:40:36;;;;;;;4.35;3.05;;;;;;;;;;5092350;28;20102;-67
2022/05/18 03:43:03;;;;;;;6.70;3.70;;;;;;;;;;5089213;28;20051;-66
2022/05/18 03:45:29;;;;;;;8.63;3.85;;;;;;;;;;5083032;28;20510;-67
2022/05/18 03:47:55;;;;;;;5.50;3.42;;;;;;;;;;5093933;28;20054;-65
2022/05/18 03:50:21;;;;;;;6.05;3.55;;;;;;;;;;5084768;28;20024;-67
2022/05/18 03:52:47;;;;;;;7.20;4.22;;;;;;;;;;5093372;28;20099;-67
2022/05/18 03:55:13;;;;;;;7.05;3.35;;;;;;;;;;5093917;28;20115;-66
2022/05/18 03:57:39;;;;;;;7.10;3.88;;;;;;;;;;5091099;28;20106;-67
2022/05/18 04:00:06;;;;;;;5.53;3.45;;;;;;;;;;5087288;28;20459;-66
2022/05/18 04:02:32;;;;;;;6.15;3.70;;;;;;;;;;5095435;28;20028;-67
2022/05/18 04:04:58;;;;;;;6.90;3.90;;;;;;;;;;5091680;28;20390;-66
2022/05/18 04:07:24;;;;;;;5.30;3.75;;;;;;;;;;5097138;28;20112;-65
2022/05/18 04:09:50;;;;;;;5.18;3.58;;;;;;;;;;5090415;28;20437;-66
2022/05/18 04:12:16;;;;;;;6.40;3.83;;;;;;;;;;5094083;28;20405;-66
2022/05/18 04:14:42;;;;;;;5.88;3.47;;;;;;;;;;5088799;28;20657;-66
2022/05/18 04:17:08;;;;;;;7.93;3.90;;;;;;;;;;5083241;28;20024;-66
2022/05/18 04:19:35;;;;;;;5.72;3.47;;;;;;;;;;5088992;28;20048;-66
2022/05/18 04:22:01;;;;;;;6.15;3.35;;;;;;;;;;5101589;28;20458;-66
2022/05/18 04:24:26;;;;;;;6.15;4.10;;;;;;;;;;5090263;28;20104;-65
2022/05/18 04:26:53;;;;;;;7.30;4.10;;;;;;;;;;5090372;28;20395;-67
2022/05/18 04:29:19;;;;;;;6.88;3.85;;;;;;;;;;5091548;28;20568;-66
2022/05/18 04:31:46;;;;;;;8.10;4.07;;;;;;;;;;5087506;28;20112;-66
2022/05/18 04:34:12;;;;;;;5.68;3.75;;;;;;;;;;5084569;28;20028;-66
2022/05/18 04:36:38;;;;;;;5.68;3.70;;;;;;;;;;5095889;28;20027;-67
2022/05/18 04:39:04;;;;;;;5.85;3.40;;;;;;;;;;5099721;28;20064;-66
2022/05/18 04:41:30;;;;;;;8.82;3.72;;;;;;;;;;5076589;28;20020;-66
2022/05/18 04:43:56;;;;;;;7.95;3.58;;;;;;;;;;5093941;28;20423;-64
2022/05/18 04:46:22;;;;;;;7.20;3.85;;;;;;;;;;5089575;28;20701;-66
2022/05/18 04:48:48;;;;;;;4.72;3.45;;;;;;;;;;5094390;28;20023;-66
2022/05/18 04:51:14;;;;;;;6.45;4.00;;;;;;;;;;5080831;28;20106;-65
2022/05/18 04:53:40;;;;;;;9.75;4.28;;;;;;;;;;5097115;28;20024;-65
2022/05/18 04:56:06;;;;;;;6.60;3.80;;;;;;;;;;5082812;28;20020;-66
2022/05/18 04:58:33;;;;;;;7.55;4.18;;;;;;;;;;5085765;28;20508;-66
2022/05/18 05:01:04;;;;;;;6.53;3.80;;;;;;;;;;5088791;28;20024;-66
2022/05/18 05:03:30;;;;;;;6.03;3.88;;;;;;;;;;5096649;28;20020;-66
2022/05/18 05:05:56;;;;;;;5.80;3.53;;;;;;;;;;5094199;28;20060;-66
2022/05/18 05:08:22;;;;;;;8.45;4.15;;;;;;;;;;5094485;28;20051;-65
2022/05/18 05:10:48;;;;;;;7.00;3.88;;;;;;;;;;5098408;28;20018;-66
2022/05/18 05:13:14;;;;;;;12.10;4.20;;;;;;;;;;5082426;28;20024;-65
2022/05/18 05:15:40;;;;;;;6.70;3.85;;;;;;;;;;5089747;28;20105;-66
2022/05/18 05:18:06;;;;;;;6.82;3.70;;;;;;;;;;5102701;28;20027;-65
2022/05/18 05:20:32;;;;;;;5.88;3.20;;;;;;;;;;5092100;28;20490;-66
2022/05/18 05:22:58;;;;;;;7.10;3.60;;;;;;;;;;5092765;28;20634;-66
2022/05/18 05:25:24;;;;;;;8.70;3.90;;;;;;;;;;5096153;28;20028;-67
2022/05/18 05:27:50;;;;;;;9.50;4.00;;;;;;;;;;5102245;28;20028;-67
2022/05/18 05:30:16;;;;;;;7.40;3.40;;;;;;;;;;5095812;28;20205;-67
2022/05/18 05:32:42;;;;;;;7.10;3.90;;;;;;;;;;5090121;28;20024;-67
2022/05/18 05:35:09;;;;;;;9.43;4.03;;;;;;;;;;5096588;28;20032;-67
2022/05/18 05:37:35;;;;;;;5.10;3.72;;;;;;;;;;5084959;28;20024;-65
2022/05/18 05:40:01;;;;;;;7.18;3.72;;;;;;;;;;5095643;27;20045;-67
2022/05/18 05:42:27;;;;;;;10.65;3.42;;;;;;;;;;5090602;28;20027;-67
2022/05/18 05:44:53;;;;;;;8.45;3.92;;;;;;;;;;5089526;28;20021;-67
2022/05/18 05:47:19;;;;;;;7.43;3.60;;;;;;;;;;5082266;28;20054;-67
2022/05/18 05:49:45;;;;;;;82.80;59.63;;;;;;;;;;5079415;28;20037;-66
2022/05/18 05:52:11;;;;;;;14.32;6.78;;;;;;;;;;5092556;28;20027;-65
2022/05/18 05:54:38;;;;;;;11.07;4.25;;;;;;;;;;5091805;28;20027;-67
2022/05/18 05:57:04;;;;;;;10.35;4.00;;;;;;;;;;5083531;28;20028;-66
2022/05/18 05:59:34;;;;;;;9.55;3.85;;;;;;;;;;5086305;28;20023;-66
2022/05/18 06:02:01;;;;;;;9.25;4.05;;;;;;;;;;5093819;28;20038;-67
2022/05/18 06:04:29;;;;;;;11.15;4.35;;;;;;;;;;5093122;28;20083;-66
2022/05/18 06:06:55;;;;;;;10.15;4.15;;;;;;;;;;5090869;28;20060;-67
2022/05/18 06:09:21;;;;;;;8.77;4.07;;;;;;;;;;5088417;28;20970;-66
2022/05/18 06:11:47;;;;;;;14.35;4.10;;;;;;;;;;5089866;28;20378;-66
2022/05/18 06:14:13;;;;;;;7.57;3.58;;;;;;;;;;5096971;28;20024;-66
2022/05/18 06:16:38;;;;;;;7.90;4.03;;;;;;;;;;5101489;28;20051;-66
2022/05/18 06:19:04;;;;;;;6.50;3.60;;;;;;;;;;5089232;28;20025;-67
2022/05/18 06:21:30;;;;;;;7.10;3.95;;;;;;;;;;5100443;28;20025;-66
2022/05/18 06:23:56;;;;;;;11.10;3.80;;;;;;;;;;5088036;28;20407;-66
2022/05/18 06:26:22;;;;;;;191.18;162.88;;;;;;;;;;5089946;28;20031;-67
2022/05/18 06:28:48;;;;;;;12.70;7.18;;;;;;;;;;5094639;28;20076;-68
2022/05/18 06:31:15;;;;;;;9.13;3.75;;;;;;;;;;5094291;28;20031;-69
2022/05/18 06:33:40;;;;;;;8.57;3.65;;;;;;;;;;5092936;28;20155;-68
2022/05/18 06:36:07;;;;;;;6.97;3.53;;;;;;;;;;5091748;28;20047;-67
2022/05/18 06:38:33;;;;;;;6.78;3.70;;;;;;;;;;5086166;28;20024;-66
2022/05/18 06:43:44;;;;;;;6.50;3.50;;;;;;;;;;5092530;28;20043;-68
2022/05/18 06:46:10;;;;;;;7.85;3.42;;;;;;;;;;5091231;28;20031;-68
2022/05/18 06:48:36;;;;;;;10.02;3.25;;;;;;;;;;5089461;28;20019;-69
2022/05/18 06:51:02;;;;;;;10.93;3.97;;;;;;;;;;5093142;28;20020;-67
2022/05/18 06:53:28;;;;;;;7.20;3.65;;;;;;;;;;5090934;28;20027;-69
2022/05/18 06:55:54;;;;;;;8.90;3.53;;;;;;;;;;5085045;28;20023;-69
2022/05/18 06:58:20;;;;;;;5.38;3.38;;;;;;;;;;5089298;28;20022;-66
2022/05/18 07:00:46;;;;;;;7.05;3.35;;;;;;;;;;5084880;28;20077;-68
2022/05/18 07:03:12;;;;;;;8.63;3.60;;;;;;;;;;5089039;28;20377;-69
2022/05/18 07:05:38;;;;;;;11.50;3.85;;;;;;;;;;5086412;28;20503;-68
2022/05/18 07:08:04;;;;;;;8.45;3.28;;;;;;;;;;5092194;28;20038;-69
2022/05/18 07:10:30;;;;;;;7.72;3.60;;;;;;;;;;5091606;28;20129;-69
2022/05/18 07:12:56;;;;;;;7.07;3.25;;;;;;;;;;5089424;27;20032;-68
2022/05/18 07:15:22;;;;;;;7.45;3.47;;;;;;;;;;5093607;28;20028;-67
2022/05/18 07:17:48;;;;;;;6.63;3.42;;;;;;;;;;5100324;28;20569;-69
2022/05/18 07:20:14;;;;;;;7.78;2.80;;;;;;;;;;5085097;28;20415;-69
2022/05/18 07:22:40;;;;;;;9.90;2.95;;;;;;;;;;5083518;28;20475;-69
2022/05/18 07:25:07;;;;;;;8.43;3.20;;;;;;;;;;5086417;28;20067;-67
2022/05/18 07:27:33;;;;;;;5.00;3.25;;;;;;;;;;5095930;28;20039;-68
2022/05/18 07:29:59;;;;;;;6.95;3.17;;;;;;;;;;5098881;28;20024;-67
2022/05/18 07:32:25;;;;;;;7.78;2.95;;;;;;;;;;5085825;28;20381;-70
2022/05/18 07:34:51;;;;;;;6.85;2.92;;;;;;;;;;5092626;28;20024;-68
2022/05/18 07:37:19;;;;;;;5.00;2.65;;;;;;;;;;5082291;28;20111;-70
2022/05/18 07:39:45;;;;;;;8.73;2.65;;;;;;;;;;5097561;28;20463;-69
2022/05/18 07:42:11;;;;;;;7.28;2.63;;;;;;;;;;5083404;28;20552;-70
2022/05/18 07:44:38;;;;;;;9.38;2.70;;;;;;;;;;5097622;28;20144;-70
2022/05/18 07:47:05;;;;;;;5.07;2.63;;;;;;;;;;5087337;28;20478;-69
2022/05/18 07:49:38;;;;;;;6.70;2.70;;;;;;;;;;5087451;28;20387;-69
2022/05/18 07:52:04;;;;;;;5.22;2.45;;;;;;;;;;5083392;28;20036;-68
2022/05/18 07:54:31;;;;;;;5.25;2.65;;;;;;;;;;5090286;28;20032;-70
2022/05/18 07:56:57;;;;;;;6.15;2.33;;;;;;;;;;5094886;28;20025;-71
2022/05/18 07:59:22;;;;;;;6.00;2.50;;;;;;;;;;5089741;28;20029;-70
2022/05/18 08:01:48;;;;;;;4.10;2.50;;;;;;;;;;5087602;28;20483;-68
2022/05/18 08:04:14;;;;;;;5.35;2.40;;;;;;;;;;5092098;28;20111;-69
2022/05/18 08:06:40;;;;;;;5.68;2.25;;;;;;;;;;5095597;28;20027;-72
2022/05/18 08:09:06;;;;;;;6.57;2.17;;;;;;;;;;5081519;28;20092;-72
2022/05/18 08:17:02;;;;;;;7.88;2.47;;;;;;;;;;5090066;28;20136;-72
2022/05/18 08:19:29;;;;;;;5.32;2.53;;;;;;;;;;5083992;28;20111;-68
2022/05/18 08:21:55;;;;;;;4.80;2.20;;;;;;;;;;5082696;28;20415;-70
2022/05/18 08:24:21;;;;;;;3.42;2.20;;;;;;;;;;5088472;28;20031;-72
2022/05/18 08:26:47;;;;;;;4.90;2.40;;;;;;;;;;5083656;28;20040;-72
2022/05/18 08:29:13;;;;;;;7.82;2.50;;;;;;;;;;5087293;28;20066;-67
2022/05/18 08:31:39;;;;;;;4.95;2.40;;;;;;;;;;5072582;28;20054;-70
2022/05/18 08:34:05;;;;;;;6.50;2.35;;;;;;;;;;5083516;28;20372;-69
2022/05/18 08:36:33;;;;;;;8.90;2.30;;;;;;;;;;5094049;28;20088;-71
2022/05/18 08:38:59;;;;;;;7.68;2.47;;;;;;;;;;5086236;28;20039;-67
2022/05/18 08:41:25;;;;;;;5.68;2.65;;;;;;;;;;5092684;28;20493;-70
2022/05/18 08:43:53;;;;;;;5.07;3.30;;;;;;;;;;5092691;28;20025;-69
2022/05/18 08:46:27;;;;;;;4.45;3.10;;;;;;;;;;5093044;28;20138;-70
2022/05/18 08:48:56;;;;;;;8.13;2.45;;;;;;;;;;5087852;28;20540;-72
2022/05/18 08:51:35;;;;;;;8.35;2.70;;;;;;;;;;5094885;28;20391;-70
2022/05/18 08:54:17;;;;;;;5.65;2.70;;;;;;;;;;5088141;28;20451;-73
2022/05/18 08:56:44;;;;;;;8.77;2.80;;;;;;;;;;5091638;28;20035;-67
2022/05/18 08:59:15;;;;;;;9.63;2.70;;;;;;;;;;5084796;28;20027;-72
2022/05/18 09:01:46;;;;;;;5.60;2.60;;;;;;;;;;5087715;28;20476;-71
2022/05/18 09:04:31;;;;;;;9.15;3.10;;;;;;;;;;5086275;28;20020;-70
2022/05/18 09:07:04;;;;;;;7.47;2.80;;;;;;;;;;5094007;28;20078;-71
2022/05/18 09:12:30;;;;;;;4.60;2.60;;;;;;;;;;5096032;28;20062;-66
2022/05/18 09:14:56;;;;;;;6.85;2.97;;;;;;;;;;5082238;28;20019;-70
2022/05/18 09:17:51;;;;;;;7.72;3.03;;;;;;;;;;5084196;28;20469;-68
2022/05/18 09:20:33;;;;;;;7.00;2.97;;;;;;;;;;5079822;28;20151;-69
2022/05/18 09:23:11;;;;;;;8.07;2.92;;;;;;;;;;5088092;28;20032;-72
2022/05/18 09:25:59;;;;;;;4.40;2.72;;;;;;;;;;5091237;28;20113;-69
2022/05/18 09:28:34;;;;;;;5.95;3.03;;;;;;;;;;5073079;28;20028;-72
2022/05/18 09:31:19;;;;;;;9.10;2.70;;;;;;;;;;5089284;28;20107;-71
2022/05/18 09:34:03;;;;;;;7.35;2.95;;;;;;;;;;5094447;28;20546;-71
2022/05/18 09:36:50;;;;;;;6.20;2.75;;;;;;;;;;5088139;28;20111;-70
2022/05/18 09:39:17;;;;;;;6.38;2.90;;;;;;;;;;5088083;28;20031;-71
2022/05/18 09:41:56;;;;;;;6.82;2.92;;;;;;;;;;5088079;28;20564;-70
2022/05/18 09:44:22;;;;;;;5.25;3.13;;;;;;;;;;5088462;28;20034;-71
2022/05/18 09:46:49;;;;;;;7.30;3.10;;;;;;;;;;5084498;28;20020;-72
2022/05/18 09:49:38;;;;;;;8.73;2.97;;;;;;;;;;5090688;28;20063;-67
2022/05/18 09:52:05;;;;;;;6.47;3.13;;;;;;;;;;5088515;28;20041;-68
2022/05/18 09:54:35;;;;;;;5.68;2.97;;;;;;;;;;5086392;28;20497;-73
2022/05/18 09:57:19;;;;;;;5.55;2.78;;;;;;;;;;5088830;28;20021;-72
2022/05/18 09:59:47;;;;;;;8.35;3.22;;;;;;;;;;5074909;28;20431;-71
2022/05/18 10:07:49;;;;;;;8.95;3.10;;;;;;;;;;5096564;28;20143;-72
2022/05/18 10:10:21;;;;;;;7.22;3.10;;;;;;;;;;5076832;28;20060;-70
2022/05/18 10:12:49;;;;;;;11.13;3.08;;;;;;;;;;5082950;28;20572;-72
2022/05/18 10:15:33;;;;;;;9.27;3.75;;;;;;;;;;5078473;28;20032;-72
2022/05/18 10:18:20;;;;;;;9.70;3.58;;;;;;;;;;5088529;28;20116;-72
2022/05/18 10:21:04;;;;;;;4.63;3.20;;;;;;;;;;5079464;28;20040;-67
2022/05/18 10:23:33;;;;;;;9.25;3.78;;;;;;;;;;5081564;28;20112;-71
2022/05/18 10:25:59;;;;;;;10.00;3.75;;;;;;;;;;5086207;28;20032;-71
2022/05/18 10:28:27;;;;;;;6.05;3.65;;;;;;;;;;5082688;27;20123;-66
2022/05/18 10:30:58;;;;;;;6.68;3.22;;;;;;;;;;5088324;28;20024;-66
2022/05/18 10:33:31;;;;;;;4.68;2.95;;;;;;;;;;5091193;28;20027;-69
2022/05/18 10:35:57;;;;;;;;;;;;;;;;;;5080603;28;20036;-71
2022/05/18 10:38:24;;;;;;;6.80;3.40;;;;;;;;;;5082674;28;19904;-68
2022/05/18 10:40:53;;;;;;;5.55;3.00;;;;;;;;;;5081484;28;20494;-68
2022/05/18 10:43:54;;;;;;;10.93;3.88;;;;;;;;;;5082720;28;20064;-65
2022/05/18 10:46:31;;;;;;;8.48;3.58;;;;;;;;;;5062886;28;20538;-68
2022/05/18 10:49:01;;;;;;;9.48;3.40;;;;;;;;;;5080377;28;20047;-68
2022/05/18 10:51:29;;;;;;;16.20;3.47;;;;;;;;;;5088029;28;20096;-66
2022/05/18 10:54:05;;;;;;;8.50;3.40;;;;;;;;;;5082024;28;20487;-66
2022/05/18 10:56:31;;;;;;;7.00;2.92;;;;;;;;;;5079949;28;20533;-66
2022/05/18 10:59:16;;;;;;;8.40;3.33;;;;;;;;;;5083197;28;20031;-67
2022/05/18 11:01:45;;;;;;;7.25;3.10;;;;;;;;;;5082751;28;20032;-67
2022/05/18 11:04:22;;;;;;;9.27;3.47;;;;;;;;;;5085021;28;20055;-66
2022/05/18 11:06:48;;;;;;;6.82;3.58;;;;;;;;;;5087496;28;20095;-67
2022/05/18 11:09:28;;;;;;;10.02;3.22;;;;;;;;;;5095913;28;20104;-67
2022/05/18 11:12:07;;;;;;;6.88;3.50;;;;;;;;;;5081166;28;20869;-68
2022/05/18 11:14:33;;;;;;;16.35;3.67;;;;;;;;;;5075251;28;20040;-67
2022/05/18 11:17:11;;;;;;;7.00;3.15;;;;;;;;;;5079226;28;20020;-67
2022/05/18 11:19:44;;;;;;;5.28;2.97;;;;;;;;;;5076885;28;20028;-67
2022/05/18 11:22:28;;;;;;;7.10;3.15;;;;;;;;;;5087487;28;20036;-67
2022/05/18 11:25:06;;;;;;;5.65;2.70;;;;;;;;;;5083500;28;20024;-68
2022/05/18 11:27:45;;;;;;;6.13;2.45;;;;;;;;;;5081581;28;20047;-67
2022/05/18 11:30:29;;;;;;;7.40;2.83;;;;;;;;;;5091180;28;20027;-68
2022/05/18 11:33:04;;;;;;;8.32;2.65;;;;;;;;;;5086656;28;20093;-67
2022/05/18 11:35:34;;;;;;;5.20;3.17;;;;;;;;;;5083182;28;20063;-67
2022/05/18 11:38:00;;;;;;;9.00;3.42;;;;;;;;;;5076880;28;20035;-69
2022/05/18 11:40:34;;;;;;;4.82;3.08;;;;;;;;;;5083553;28;20146;-68
2022/05/18 11:43:28;;;;;;;7.07;2.70;;;;;;;;;;5088311;28;20437;-69
2022/05/18 11:45:57;;;;;;;8.05;3.35;;;;;;;;;;5094875;28;20491;-68
2022/05/18 11:48:38;;;;;;;7.22;2.80;;;;;;;;;;5082313;28;20099;-69
2022/05/18 11:51:27;;;;;;;8.00;3.63;;;;;;;;;;5086740;28;20031;-69
2022/05/18 11:53:53;;;;;;;7.90;2.90;;;;;;;;;;5088505;28;20040;-67
2022/05/18 11:56:38;;;;;;;7.53;2.90;;;;;;;;;;5084918;28;20515;-68
2022/05/18 11:59:30;;;;;;;8.35;3.08;;;;;;;;;;5087625;28;20035;-67
2022/05/18 12:02:04;;;;;;;5.53;2.35;;;;;;;;;;5090277;28;20028;-68
2022/05/18 12:04:45;;;;;;;7.70;2.90;;;;;;;;;;5084998;28;20036;-67
2022/05/18 12:07:20;;;;;;;4.45;2.30;;;;;;;;;;5099127;28;20051;-67
2022/05/18 12:10:05;;;;;;;5.93;2.40;;;;;;;;;;5097465;28;20046;-68
2022/05/18 12:12:34;;;;;;;4.18;2.00;;;;;;;;;;5096014;28;20038;-67
2022/05/18 12:14:59;;;;;;;5.97;1.90;;;;;;;;;;5097914;28;20533;-68
2022/05/18 12:17:25;;;;;;;4.55;2.00;;;;;;;;;;5102638;28;20052;-68
2022/05/18 12:19:55;;;;;;;3.70;1.60;;;;;;;;;;5096178;28;20131;-68
2022/05/18 12:22:39;;;;;;;5.30;2.10;;;;;;;;;;5077920;28;20101;-69
2022/05/18 12:25:06;;;;;;;5.22;1.90;;;;;;;;;;5084837;28;20044;-69
2022/05/18 12:27:32;;;;;;;5.13;2.25;;;;;;;;;;5080588;28;20039;-67
2022/05/18 12:29:59;;;;;;;6.57;2.25;;;;;;;;;;5084594;28;20020;-67
2022/05/18 12:32:26;;;;;;;5.32;2.10;;;;;;;;;;5081002;28;20042;-68
2022/05/18 12:35:21;;;;;;;3.88;2.15;;;;;;;;;;5083488;28;20099;-67
2022/05/18 12:37:50;;;;;;;5.75;2.28;;;;;;;;;;5072986;28;20028;-66
2022/05/18 12:40:16;;;;;;;7.18;2.17;;;;;;;;;;5079453;28;20657;-69
2022/05/18 12:42:48;;;;;;;6.22;2.10;;;;;;;;;;5076735;28;20028;-66
2022/05/18 12:45:21;;;;;;;6.07;2.30;;;;;;;;;;5073731;28;20028;-69
2022/05/18 12:47:52;;;;;;;9.82;2.72;;;;;;;;;;5085856;28;20080;-69
2022/05/18 12:50:20;;;;;;;6.05;2.30;;;;;;;;;;5076802;28;20028;-70
2022/05/18 12:52:54;;;;;;;4.53;2.50;;;;;;;;;;5072273;28;20413;-70
2022/05/18 12:55:23;;;;;;;6.20;2.30;;;;;;;;;;5085745;28;20422;-69
2022/05/18 12:57:52;;;;;;;10.32;2.50;;;;;;;;;;5083073;28;20259;-68
2022/05/18 13:00:23;;;;;;;9.25;2.40;;;;;;;;;;5084359;28;20543;-68
2022/05/18 13:02:56;;;;;;;5.07;2.50;;;;;;;;;;5088060;28;20047;-67
2022/05/18 13:05:25;;;;;;;4.15;2.25;;;;;;;;;;5085148;28;20082;-67
2022/05/18 13:07:51;;;;;;;5.05;2.53;;;;;;;;;;5089720;28;20034;-69
2022/05/18 13:10:20;;;;;;;4.68;2.50;;;;;;;;;;5093016;28;20070;-69
2022/05/18 13:12:46;;;;;;;6.20;2.70;;;;;;;;;;5073984;28;20104;-69
2022/05/18 13:15:21;;;;;;;9.50;2.70;;;;;;;;;;5074201;28;20123;-69
2022/05/18 13:17:47;;;;;;;9.18;2.80;;;;;;;;;;5080391;28;20031;-69
2022/05/18 13:20:29;;;;;;;8.95;2.63;;;;;;;;;;5080680;28;20040;-69
2022/05/18 13:23:03;;;;;;;6.00;2.63;;;;;;;;;;5077326;28;20020;-69
2022/05/18 13:25:31;;;;;;;7.28;2.72;;;;;;;;;;5082209;28;20028;-68
2022/05/18 13:27:58;;;;;;;5.65;2.63;;;;;;;;;;5084787;28;20040;-69
2022/05/18 13:30:28;;;;;;;7.53;2.80;;;;;;;;;;5082253;28;20055;-68
2022/05/18 13:32:54;;;;;;;6.82;2.75;;;;;;;;;;5087983;28;20663;-69
2022/05/18 13:35:22;;;;;;;9.13;2.63;;;;;;;;;;5077237;28;20040;-68
2022/05/18 13:37:52;;;;;;;9.07;4.63;;;;;;;;;;5081262;28;20082;-67
2022/05/18 13:40:19;;;;;;;8.65;4.57;;;;;;;;;;5075282;28;20024;-68
2022/05/18 13:42:48;;;;;;;9.45;2.90;;;;;;;;;;5077592;28;20020;-69
2022/05/18 13:45:14;;;;;;;7.72;2.70;;;;;;;;;;5081737;28;20035;-68
2022/05/18 13:47:42;;;;;;;5.75;2.90;;;;;;;;;;5079416;28;20093;-69
2022/05/18 13:50:10;;;;;;;6.45;2.75;;;;;;;;;;5088014;28;20624;-68
2022/05/18 13:52:41;;;;;;;9.20;2.67;;;;;;;;;;5081793;28;20067;-67
2022/05/18 13:55:09;;;;;;;5.97;2.70;;;;;;;;;;5086379;28;22152;-68
2022/05/18 13:57:55;;;;;;;6.78;2.80;;;;;;;;;;5086112;28;20519;-68
2022/05/18 14:00:28;;;;;;;4.85;2.63;;;;;;;;;;5081296;28;20016;-68
2022/05/18 14:03:01;;;;;;;5.13;2.67;;;;;;;;;;5088063;28;20028;-68
2022/05/18 14:05:31;;;;;;;4.65;2.60;;;;;;;;;;5078190;28;20117;-68
2022/05/18 14:07:58;;;;;;;4.10;2.40;;;;;;;;;;5085341;28;20031;-68
2022/05/18 14:10:27;;;;;;;5.55;2.50;;;;;;;;;;5083886;28;20039;-66
2022/05/18 14:12:57;;;;;;;4.57;2.28;;;;;;;;;;5073263;28;20047;-67
2022/05/18 14:15:23;;;;;;;7.18;2.08;;;;;;;;;;5089439;28;20067;-67
2022/05/18 14:17:54;;;;;;;5.88;2.50;;;;;;;;;;5078671;28;20400;-67
2022/05/18 14:20:25;;;;;;;4.50;2.72;;;;;;;;;;5079914;28;20031;-67
2022/05/18 14:22:57;;;;;;;7.63;2.47;;;;;;;;;;5086949;28;20028;-67
2022/05/18 14:25:26;;;;;;;5.30;2.20;;;;;;;;;;5088127;28;20498;-67
2022/05/18 14:27:55;;;;;;;8.65;2.45;;;;;;;;;;5080116;28;20072;-67
2022/05/18 14:30:22;;;;;;;5.20;2.30;;;;;;;;;;5082258;28;20035;-67
2022/05/18 14:33:14;;;;;;;4.53;2.45;;;;;;;;;;5078394;28;20483;-67
2022/05/18 14:35:46;;;;;;;3.88;2.50;;;;;;;;;;5072038;28;20097;-66
2022/05/18 14:38:18;;;;;;;7.32;2.63;;;;;;;;;;5078859;28;20021;-67
2022/05/18 14:40:45;;;;;;;;;;;;;;;;;;5077468;28;20369;-67
2022/05/18 14:43:11;;;;;;;5.88;2.42;;;;;;;;;;5085540;28;19911;-68
2022/05/18 14:45:42;;;;;;;6.85;2.47;;;;;;;;;;5077138;28;20112;-66
2022/05/18 14:48:10;;;;;;;4.70;2.65;;;;;;;;;;5078966;28;20394;-67
2022/05/18 14:50:38;;;;;;;7.32;2.65;;;;;;;;;;5076316;28;20047;-66
2022/05/18 14:53:06;;;;;;;6.93;2.40;;;;;;;;;;5076047;28;20036;-68
2022/05/18 14:55:40;;;;;;;5.68;2.45;;;;;;;;;;5080568;28;20063;-67
2022/05/18 14:58:09;;;;;;;5.47;2.53;;;;;;;;;;5078139;28;20094;-66
2022/05/18 15:00:36;;;;;;;5.00;2.50;;;;;;;;;;5078323;28;20100;-67
2022/05/18 15:03:08;;;;;;;4.40;2.35;;;;;;;;;;5084724;28;20383;-67
2022/05/18 15:05:35;;;;;;;6.20;2.50;;;;;;;;;;5076808;28;20047;-68
2022/05/18 15:08:01;;;;;;;5.47;2.33;;;;;;;;;;5082446;28;20028;-67
2022/05/18 15:10:35;;;;;;;5.82;2.60;;;;;;;;;;5088493;28;20529;-68
2022/05/18 15:13:06;;;;;;;5.43;2.72;;;;;;;;;;5097903;28;20038;-67
2022/05/18 15:16:02;;;;;;;4.88;2.85;;;;;;;;;;5080115;28;20609;-68
2022/05/18 15:18:34;;;;;;;6.28;2.60;;;;;;;;;;5069856;28;20036;-67
2022/05/18 15:21:21;;;;;;;9.25;2.60;;;;;;;;;;5082884;28;20062;-68